• Join FlightAware (Why Join?)
  • Login
  • US Flag 
06:26PM EDT


 

Airport Tracker/Info


-or-


 

Live Flight TrackerFlight Track Log ✈ ASQ5963 ✈ 03-Jul-2013 ✈ KIAH - KTYS

Flight Track Log - Related Links

Times and Time Zones

All times are in EDT time to prevent confusion due to time zone crossing. See the ASQ5963 flight status page for this flight to view local times or setup timezone preferences in your user account.

Time Position Orientation Groundspeed Altitude Reporting Facility
EDT Latitude Longitude Course Direction KTS MPH feet Rate Location/Type
02:08PM 29.9594 -95.3414 90° East 154 177 700  Level Houston Center
02:09PM 29.9308 -95.3039 131° Southeast 204 235 2,000 1,440 Climbing Houston Center
02:10PM 29.8886 -95.2472 131° Southeast 219 252 3,600 1,680 Climbing Houston Center
02:11PM 29.9834 -94.9087 90° East  Level FlightAware Approximate
02:11PM 29.8511 -95.1783 122° Southeast 255 293 5,700  Level Houston Center
02:12PM 29.9834 -94.7672 90° East  Level FlightAware Approximate
02:12PM 29.8344 -95.0803 101° East 258 297 8,700  Level Houston Center
02:13PM 29.9833 -94.6257 90° East  Level FlightAware Approximate
02:13PM 29.8467 -94.9969 80° East 278 320 10,400  Level Houston Center
02:14PM 29.8778 -94.9125 67° East 287 330 12,100 1,320 Climbing Houston Center
02:15PM 29.9050 -94.8150 72° East 320 368 13,200 960 Climbing Houston Center
02:16PM 29.9397 -94.7114 69° East 343 395 14,200 900 Climbing Houston Center
02:17PM 29.9764 -94.6008 69° East 366 421 15,100 960 Climbing Houston Center
02:18PM 29.9908 -94.4622 83° East 381 438 16,300 1,020 Climbing Houston Center
02:19PM 30.0053 -94.3394 82° East 388 447 17,300 900 Climbing Houston Center
02:20PM 30.0200 -94.2153 82° East 391 450 18,200 1,020 Climbing Houston Center
02:22PM 30.0219 -94.0665 85° East  Level FlightAware Approximate
02:23PM 30.0519 -93.9328 85° East 407 468 20,500  Level Houston Center
02:24PM 30.0664 -93.8011 83° East 416 479 21,500 960 Climbing Houston Center
02:25PM 30.0811 -93.6681 83° East 421 484 22,500 960 Climbing Houston Center
02:26PM 30.0944 -93.5344 83° East 425 489 23,500 1,020 Climbing Houston Center
02:27PM 30.1119 -93.3733 83° East 428 493 24,700 1,020 Climbing Houston Center
02:28PM 30.1258 -93.2364 83° East 435 501 25,700 900 Climbing Houston Center
02:29PM 30.1489 -93.0997 79° East 443 510 26,600 780 Climbing Houston Center
02:30PM 30.2119 -92.9753 60° Northeast 456 525 27,400 720 Climbing Houston Center
02:31PM 30.2786 -92.8536 58° Northeast 454 522 28,200 840 Climbing Houston Center
02:32PM 30.3622 -92.7019 57° Northeast 464 534 29,200 960 Climbing Houston Center
02:33PM 30.4322 -92.5744 57° Northeast 469 540 30,300 1,140 Climbing Houston Center
02:34PM 30.5011 -92.4444 58° Northeast 465 535 31,600 1,260 Climbing Houston Center
02:35PM 30.5675 -92.3189 58° Northeast 460 529 33,000 1,200 Climbing Houston Center
02:36PM 30.6339 -92.1972 58° Northeast 453 521 34,200 960 Climbing Houston Center
02:37PM 30.6992 -92.0747 58° Northeast 449 517 35,000 360 Climbing Houston Center
02:38PM 30.7797 -91.9242 58° Northeast 459 528 35,000  Level Houston Center
02:39PM 30.8517 -91.7886 58° Northeast 486 559 35,000  Level Houston Center
02:40PM 30.9261 -91.6489 58° Northeast 501 577 35,000  Level Houston Center
02:41PM 31.0017 -91.5067 58° Northeast 509 586 35,000  Level Houston Center
02:42PM 31.0775 -91.3628 58° Northeast 516 594 35,000  Level Houston Center
02:43PM 31.1711 -91.1872 58° Northeast 524 603 35,000  Level Houston Center
02:44PM 31.2447 -91.0450 59° Northeast 519 597 35,000  Level Houston Center
02:45PM 31.3189 -90.9019 59° Northeast 515 593 35,000  Level Houston Center
02:46PM 31.3944 -90.7578 58° Northeast 517 595 35,000  Level Houston Center
02:47PM 31.4683 -90.6136 59° Northeast 514 592 35,000  Level Houston Center
02:48PM 31.5417 -90.4703 59° Northeast 514 592 35,000  Level Houston Center
02:49PM 31.6311 -90.2989 58° Northeast 511 588 35,000  Level Houston Center
02:51PM 31.7019 -90.1564 60° Northeast 504 580 35,000  Level Houston Center
02:52PM 31.7742 -90.0158 59° Northeast 503 579 35,000  Level Houston Center
02:53PM 31.8447 -89.8769 59° Northeast 497 572 35,000  Level Houston Center
02:54PM 31.9269 -89.7111 60° Northeast 499 574 35,000  Level Memphis Center
02:55PM 31.9972 -89.5711 59° Northeast 489 563 35,000  Level Memphis Center
02:56PM 32.0672 -89.4331 59° Northeast 489 563 35,000  Level Memphis Center
02:57PM 32.1433 -89.2778 60° Northeast 492 566 35,000  Level Memphis Center
02:58PM 32.2150 -89.1369 59° Northeast 492 566 35,000  Level Memphis Center
02:59PM 32.2825 -89.0008 60° Northeast 492 566 35,000  Level Memphis Center
03:00PM 32.3517 -88.8597 60° Northeast 492 566 35,000  Level Memphis Center
03:01PM 32.4317 -88.7303 54° Northeast 492 566 35,000  Level Memphis Center
03:02PM 32.5197 -88.6031 51° Northeast 492 566 35,000  Level Memphis Center
03:03PM 32.6056 -88.4781 51° Northeast 492 566 35,000  Level Memphis Center
03:04PM 32.6953 -88.3503 50° Northeast 492 566 35,000  Level Memphis Center
03:05PM 32.8281 -88.1522 51° Northeast 519 597 35,000  Level Atlanta Center
03:06PM 32.9136 -88.0250 51° Northeast 503 579 35,000  Level Atlanta Center
03:07PM 32.9967 -87.9100 49° Northeast 496 571 35,000  Level Atlanta Center
03:08PM 33.0867 -87.7700 52° Northeast 490 564 35,000  Level Atlanta Center
03:09PM 33.1717 -87.6447 51° Northeast 490 564 35,000  Level Atlanta Center
03:10PM 33.2567 -87.5192 51° Northeast 490 564 35,000  Level Atlanta Center
03:11PM 33.3394 -87.3931 52° Northeast 484 557 35,000  Level Atlanta Center
03:12PM 33.4264 -87.2644 51° Northeast 484 557 35,000  Level Atlanta Center
03:13PM 33.5089 -87.1406 51° Northeast 484 557 35,000  Level Atlanta Center
03:14PM 33.5956 -87.0117 51° Northeast 484 557 35,000  Level Atlanta Center
03:15PM 33.6800 -86.8847 51° Northeast 484 557 35,000  Level Atlanta Center
03:16PM 33.7725 -86.7603 48° Northeast 490 564 35,000  Level Atlanta Center
03:17PM 33.8628 -86.6431 47° Northeast 490 564 35,000  Level Atlanta Center
03:18PM 33.9528 -86.5231 48° Northeast 480 552 35,000  Level Atlanta Center
03:19PM 34.0428 -86.4028 48° Northeast 480 552 35,000  Level Atlanta Center
03:20PM 34.1328 -86.2800 48° Northeast 480 552 35,000  Level Atlanta Center
03:21PM 34.2247 -86.1592 47° Northeast 480 552 35,000 -300 Level Atlanta Center
03:22PM 34.3144 -86.0383 48° Northeast 480 552 34,500 -780 Descending Atlanta Center
03:23PM 34.4019 -85.9194 48° Northeast 475 547 33,500 -1,080 Descending Atlanta Center
03:24PM 34.4892 -85.8056 47° Northeast 475 547 32,400 -1,080 Descending Atlanta Center
03:25PM 34.5742 -85.6861 49° Northeast 461 531 31,400 -960 Descending Atlanta Center
03:26PM 34.6592 -85.5692 49° Northeast 461 531 30,500 -960 Descending Atlanta Center
03:27PM 34.7483 -85.4494 48° Northeast 461 531 29,500 -1,020 Descending Atlanta Center
03:28PM 34.8394 -85.3269 48° Northeast 467 537 28,500 -1,020 Descending Atlanta Center
03:29PM 34.9283 -85.2017 49° Northeast 477 549 27,500 -1,020 Descending Atlanta Center
03:30PM 35.0192 -85.0786 48° Northeast 482 555 26,500 -1,020 Descending Atlanta Center
03:31PM 35.1097 -84.9578 47° Northeast 477 549 25,500 -1,020 Descending Atlanta Center
03:32PM 35.2003 -84.8394 47° Northeast 477 549 24,500 -1,620 Descending Atlanta Center
03:33PM 35.2886 -84.7233 47° Northeast 477 549 22,300 -2,580 Descending Atlanta Center
03:34PM 35.3706 -84.6119 48° Northeast 454 522 19,400 -3,000 Descending Atlanta Center
03:35PM 35.4503 -84.5106 46° Northeast 426 490 16,400 -3,000 Descending Atlanta Center
03:36PM 35.5194 -84.4164 48° Northeast 396 456 13,400 -2,760 Descending Atlanta Center
03:37PM 35.5886 -84.3247 47° Northeast 372 428 10,900 -2,100 Descending Atlanta Center
03:38PM 35.6556 -84.2686 34° Northeast 341 392 9,200 -2,100 Descending Atlanta Center
03:39PM 35.7286 -84.2511 11° North 276 318 6,700 -2,700 Descending Atlanta Center
03:40PM 35.7369 -84.1744 82° East 220 253 3,900 -1,860 Descending Atlanta Center
03:41PM 35.7286 -84.1028 98° East 186 214 3,000 -900 Descending Atlanta Center